createdAt,value
2018-09-21T00:01:44.070Z,9.10
2018-09-21T00:04:16.486Z,9.97
2018-09-21T00:06:48.934Z,8.37
2018-09-21T00:09:21.345Z,9.50
2018-09-21T00:11:53.757Z,8.23
2018-09-21T00:14:26.175Z,8.03
2018-09-21T00:16:58.598Z,9.57
2018-09-21T00:19:31.011Z,11.60
2018-09-21T00:22:03.539Z,9.93
2018-09-21T00:24:35.942Z,12.20
2018-09-21T00:27:08.378Z,12.73
2018-09-21T00:29:40.802Z,9.57
2018-09-21T00:32:13.234Z,7.80
2018-09-21T00:34:45.638Z,5.87
2018-09-21T00:37:18.075Z,9.83
2018-09-21T00:39:50.501Z,8.13
2018-09-21T00:42:22.940Z,6.57
2018-09-21T00:44:55.351Z,9.03
2018-09-21T00:47:27.779Z,9.20
2018-09-21T00:50:00.217Z,7.93
2018-09-21T00:52:32.641Z,8.90
2018-09-21T00:55:05.047Z,7.60
2018-09-21T00:57:37.490Z,10.17
2018-09-21T01:00:09.913Z,8.50
2018-09-21T01:02:42.350Z,12.87
2018-09-21T01:05:14.777Z,9.73
2018-09-21T01:07:47.222Z,8.53
2018-09-21T01:10:19.630Z,9.83
2018-09-21T01:12:52.064Z,9.40
2018-09-21T01:15:24.499Z,8.40
2018-09-21T01:17:56.939Z,7.90
2018-09-21T01:20:29.354Z,6.87
2018-09-21T01:23:01.786Z,7.70
2018-09-21T01:25:34.194Z,7.83
2018-09-21T01:28:06.941Z,8.30
2018-09-21T01:30:39.359Z,8.13
2018-09-21T01:33:11.783Z,7.97
2018-09-21T01:35:44.202Z,12.43
2018-09-21T01:38:16.634Z,9.07
2018-09-21T01:40:49.057Z,6.93
2018-09-21T01:43:21.486Z,10.87
2018-09-21T01:45:53.900Z,7.40
2018-09-21T01:48:26.371Z,7.77
2018-09-21T01:50:58.778Z,6.53
2018-09-21T01:53:31.218Z,7.90
2018-09-21T01:56:03.621Z,7.97
2018-09-21T01:58:36.051Z,7.33
2018-09-21T02:01:08.462Z,6.37
2018-09-21T02:03:40.899Z,8.60
2018-09-21T02:06:13.304Z,9.47
2018-09-21T02:08:45.763Z,10.53
2018-09-21T02:11:18.186Z,8.43
2018-09-21T02:13:50.620Z,8.70
2018-09-21T02:16:23.034Z,11.93
2018-09-21T02:18:55.468Z,9.73
2018-09-21T02:21:27.880Z,7.37
2018-09-21T02:24:00.327Z,8.03
2018-09-21T02:26:32.742Z,10.13
2018-09-21T02:29:05.234Z,11.13
2018-09-21T02:31:37.643Z,9.90
2018-09-21T02:34:10.075Z,6.83
2018-09-21T02:36:42.482Z,7.87
2018-09-21T02:39:14.902Z,6.97
2018-09-21T02:41:47.314Z,10.20
2018-09-21T02:44:19.738Z,7.53
2018-09-21T02:46:52.153Z,11.87
2018-09-21T02:49:24.594Z,10.67
2018-09-21T02:51:57.004Z,9.13
2018-09-21T02:54:29.425Z,8.03
2018-09-21T02:57:01.831Z,8.77
2018-09-21T02:59:34.255Z,7.67
2018-09-21T03:02:06.674Z,6.27
2018-09-21T03:04:39.099Z,10.33
2018-09-21T03:07:11.508Z,11.57
2018-09-21T03:09:43.903Z,9.33
2018-09-21T03:12:16.294Z,6.80
2018-09-21T03:14:48.690Z,6.83
2018-09-21T03:17:21.075Z,9.60
2018-09-21T03:19:53.610Z,7.70
2018-09-21T03:22:25.997Z,8.47
2018-09-21T03:24:58.405Z,7.43
2018-09-21T03:27:30.787Z,6.83
2018-09-21T03:30:03.193Z,9.30
2018-09-21T03:32:35.585Z,7.50
2018-09-21T03:35:07.989Z,7.97
2018-09-21T03:37:40.373Z,7.77
2018-09-21T03:40:12.773Z,8.57
2018-09-21T03:42:45.173Z,7.97
2018-09-21T03:45:17.574Z,10.47
2018-09-21T03:47:49.963Z,9.37
2018-09-21T03:50:22.371Z,10.43
2018-09-21T03:52:54.758Z,9.20
2018-09-21T03:55:27.161Z,8.47
2018-09-21T03:57:59.545Z,9.23
2018-09-21T04:00:31.954Z,9.53
2018-09-21T04:03:04.361Z,10.43
2018-09-21T04:05:36.757Z,8.70
2018-09-21T04:08:09.246Z,7.53
2018-09-21T04:10:41.646Z,6.03
2018-09-21T04:13:14.022Z,10.60
2018-09-21T04:15:46.437Z,7.33
2018-09-21T04:18:18.891Z,14.83
2018-09-21T04:20:51.297Z,6.57
2018-09-21T04:23:23.704Z,9.17
2018-09-21T04:25:56.183Z,9.43
2018-09-21T04:28:28.514Z,9.17
2018-09-21T04:31:00.922Z,11.20
2018-09-21T04:33:33.307Z,11.57
2018-09-21T04:36:05.741Z,7.90
2018-09-21T04:38:38.122Z,9.40
2018-09-21T04:41:10.765Z,9.93
2018-09-21T04:43:43.156Z,8.80
2018-09-21T04:46:16.946Z,7.23
2018-09-21T04:48:49.418Z,10.03
2018-09-21T04:51:21.830Z,9.50
2018-09-21T04:53:54.304Z,9.80
2018-09-21T04:56:26.732Z,7.70
2018-09-21T04:58:59.138Z,10.13
2018-09-21T05:01:31.534Z,9.10
2018-09-21T05:04:03.925Z,8.57
2018-09-21T05:06:36.330Z,8.97
2018-09-21T05:09:08.725Z,12.87
2018-09-21T05:11:41.135Z,8.23
2018-09-21T05:14:13.524Z,11.83
2018-09-21T05:16:45.927Z,14.47
2018-09-21T05:19:18.323Z,13.23
2018-09-21T05:21:50.730Z,11.27
2018-09-21T05:24:23.145Z,10.40
2018-09-21T05:26:55.550Z,8.00
2018-09-21T05:29:27.946Z,14.67
2018-09-21T05:32:00.355Z,11.17
2018-09-21T05:34:35.131Z,9.27
2018-09-21T05:37:07.631Z,12.03
2018-09-21T05:39:40.287Z,10.87
2018-09-21T05:42:12.804Z,10.23
2018-09-21T05:44:45.775Z,8.57
2018-09-21T05:47:18.175Z,11.43
2018-09-21T05:49:50.674Z,11.70
2018-09-21T05:52:23.109Z,8.23
2018-09-21T05:54:55.498Z,10.10
2018-09-21T05:57:27.899Z,20.77
2018-09-21T06:00:00.290Z,11.33
2018-09-21T06:02:32.824Z,8.80
2018-09-21T06:05:05.211Z,12.17
2018-09-21T06:07:37.673Z,14.67
2018-09-21T06:10:10.109Z,8.70
2018-09-21T06:12:42.538Z,12.47
2018-09-21T06:15:14.966Z,12.57
2018-09-21T06:17:47.398Z,12.50
2018-09-21T06:20:19.901Z,11.80
2018-09-21T06:22:52.601Z,9.93
2018-09-21T06:25:25.046Z,12.53
2018-09-21T06:27:57.459Z,12.10
2018-09-21T06:30:29.895Z,8.50
2018-09-21T06:33:02.331Z,12.57
2018-09-21T06:35:34.771Z,8.07
2018-09-21T06:38:07.198Z,9.93
2018-09-21T06:40:39.626Z,11.93
2018-09-21T06:43:12.051Z,12.80
2018-09-21T06:45:44.480Z,11.87
2018-09-21T06:48:16.886Z,9.43
2018-09-21T06:50:51.003Z,9.03
2018-09-21T06:53:23.421Z,8.13
2018-09-21T06:55:55.847Z,9.40
2018-09-21T07:01:11.006Z,10.73
2018-09-21T07:03:43.418Z,10.17
2018-09-21T07:06:15.850Z,9.50
2018-09-21T07:08:48.279Z,7.67
2018-09-21T07:11:20.716Z,12.23
2018-09-21T07:13:53.178Z,7.77
2018-09-21T07:16:25.606Z,7.80
2018-09-21T07:18:58.042Z,7.90
2018-09-21T07:21:30.494Z,11.07
2018-09-21T07:24:02.930Z,10.30
2018-09-21T07:26:35.354Z,6.30
2018-09-21T07:29:07.775Z,10.67
2018-09-21T07:31:40.211Z,9.90
2018-09-21T07:34:12.628Z,9.87
2018-09-21T07:36:45.066Z,6.33
2018-09-21T07:39:17.495Z,10.67
2018-09-21T07:41:49.913Z,8.13
2018-09-21T07:44:22.351Z,7.43
2018-09-21T07:46:54.762Z,6.03
2018-09-21T07:49:27.230Z,11.37
2018-09-21T07:51:59.658Z,6.13
2018-09-21T07:54:32.140Z,6.40
2018-09-21T07:57:04.530Z,7.90
2018-09-21T07:59:36.961Z,7.80
2018-09-21T08:02:09.405Z,8.53
2018-09-21T08:04:41.829Z,14.40
2018-09-21T08:07:14.273Z,8.60
2018-09-21T08:09:46.667Z,7.07
2018-09-21T08:12:19.087Z,13.87
2018-09-21T08:14:51.483Z,12.03
2018-09-21T08:17:23.938Z,11.80
2018-09-21T08:19:56.355Z,11.30
2018-09-21T08:22:28.758Z,7.37
2018-09-21T08:25:01.197Z,9.73
2018-09-21T08:27:33.586Z,7.00
2018-09-21T08:30:05.973Z,9.57
2018-09-21T08:32:38.370Z,7.27
2018-09-21T08:35:10.764Z,10.87
2018-09-21T08:37:43.174Z,4.23
2018-09-21T08:40:15.585Z,11.55
2018-09-21T08:42:48.004Z,10.30
2018-09-21T08:45:20.547Z,5.80
2018-09-21T08:47:52.974Z,11.13
2018-09-21T08:50:25.369Z,10.50
2018-09-21T08:52:57.806Z,6.37
2018-09-21T08:55:30.193Z,4.87
2018-09-21T08:58:02.598Z,6.30
2018-09-21T09:00:34.995Z,6.60
2018-09-21T09:03:07.428Z,14.80
2018-09-21T09:05:39.789Z,14.47
2018-09-21T09:08:12.228Z,10.00
2018-09-21T09:10:44.674Z,11.37
2018-09-21T09:13:17.127Z,13.53
2018-09-21T09:15:49.547Z,15.03
2018-09-21T09:18:21.971Z,11.87
2018-09-21T09:20:54.390Z,9.50
2018-09-21T09:23:26.823Z,10.03
2018-09-21T09:25:59.258Z,14.70
2018-09-21T09:28:31.708Z,12.47
2018-09-21T09:31:04.130Z,16.97
2018-09-21T09:33:36.568Z,10.93
2018-09-21T09:36:08.978Z,10.43
2018-09-21T09:38:41.418Z,11.57
2018-09-21T09:41:13.829Z,12.10
2018-09-21T09:43:46.260Z,10.17
2018-09-21T09:46:18.673Z,10.47
2018-09-21T09:48:51.225Z,10.20
2018-09-21T09:51:23.558Z,13.37
2018-09-21T09:53:57.599Z,13.73
2018-09-21T09:56:30.018Z,10.97
2018-09-21T09:59:02.449Z,12.67
2018-09-21T10:01:35.199Z,14.17
2018-09-21T10:04:07.654Z,8.93
2018-09-21T10:06:40.086Z,12.87
2018-09-21T10:09:12.535Z,11.60
2018-09-21T10:11:44.949Z,11.83
2018-09-21T10:14:17.393Z,7.73
2018-09-21T10:16:49.940Z,9.93
2018-09-21T10:19:22.369Z,11.57
2018-09-21T10:21:54.811Z,11.80
2018-09-21T10:24:27.273Z,10.93
2018-09-21T10:26:59.754Z,8.40
2018-09-21T10:29:32.134Z,9.90
2018-09-21T10:32:04.548Z,8.93
2018-09-21T10:34:37.111Z,9.97
2018-09-21T10:37:09.542Z,10.77
2018-09-21T10:39:41.938Z,11.60
2018-09-21T10:42:14.370Z,10.40
2018-09-21T10:44:46.797Z,15.80
2018-09-21T10:47:19.222Z,13.93
2018-09-21T10:49:51.691Z,9.20
2018-09-21T10:52:24.115Z,12.93
2018-09-21T10:54:56.546Z,13.10
2018-09-21T10:57:28.968Z,12.77
2018-09-21T11:00:01.469Z,11.87
2018-09-21T11:02:33.914Z,10.20
2018-09-21T11:05:06.387Z,14.03
2018-09-21T11:07:38.828Z,13.60
2018-09-21T11:10:11.344Z,11.83
2018-09-21T11:12:43.766Z,11.83
2018-09-21T11:15:16.198Z,16.47
2018-09-21T11:17:48.618Z,13.07
2018-09-21T11:20:21.061Z,13.87
2018-09-21T11:22:53.471Z,11.07
2018-09-21T11:25:25.903Z,13.40
2018-09-21T11:27:58.427Z,10.17
2018-09-21T11:30:31.246Z,11.90
2018-09-21T11:33:04.710Z,12.20
2018-09-21T11:35:37.093Z,15.47
2018-09-21T11:38:09.510Z,14.47
2018-09-21T11:40:41.964Z,11.20
2018-09-21T11:43:14.444Z,8.40
2018-09-21T11:45:46.838Z,7.80
2018-09-21T11:48:19.267Z,12.03
2018-09-21T11:50:51.863Z,18.27
2018-09-21T11:53:24.278Z,16.57
2018-09-21T11:55:56.723Z,10.53
2018-09-21T11:58:29.140Z,15.00
2018-09-21T12:01:01.571Z,13.27
2018-09-21T12:03:33.998Z,11.13
2018-09-21T12:06:06.458Z,14.20
2018-09-21T12:08:38.885Z,16.37
2018-09-21T12:11:11.286Z,11.77
2018-09-21T12:13:43.733Z,13.37
2018-09-21T12:16:16.143Z,16.10
2018-09-21T12:18:48.566Z,14.47
2018-09-21T12:21:20.973Z,10.63
2018-09-21T12:23:53.470Z,10.00
2018-09-21T12:26:25.860Z,6.73
2018-09-21T12:28:58.265Z,7.33
2018-09-21T12:31:30.650Z,9.60
2018-09-21T12:34:03.099Z,7.60
2018-09-21T12:36:35.478Z,5.60
2018-09-21T12:39:08.857Z,6.53
2018-09-21T12:41:41.242Z,7.00
2018-09-21T12:44:15.150Z,4.87
2018-09-21T12:46:47.535Z,5.90
2018-09-21T12:49:19.938Z,10.60
2018-09-21T12:51:52.337Z,4.07
2018-09-21T12:54:24.755Z,5.53
2018-09-21T12:56:57.151Z,5.40
2018-09-21T12:59:29.583Z,6.10
2018-09-21T13:02:02.014Z,5.77
2018-09-21T13:04:34.477Z,5.77
2018-09-21T13:07:06.892Z,6.27
2018-09-21T13:09:39.306Z,5.43
2018-09-21T13:12:11.711Z,7.27
2018-09-21T13:14:44.128Z,7.13
2018-09-21T13:17:16.581Z,7.13
2018-09-21T13:19:49.031Z,8.37
2018-09-21T13:22:21.426Z,3.37
2018-09-21T13:24:53.829Z,3.13
2018-09-21T13:27:26.230Z,2.17
2018-09-21T13:29:58.681Z,3.27
2018-09-21T13:32:31.066Z,3.97
2018-09-21T13:35:03.620Z,6.70
2018-09-21T13:37:36.530Z,4.70
2018-09-21T13:40:08.963Z,3.90
2018-09-21T13:42:41.361Z,4.67
2018-09-21T13:45:13.768Z,4.97
2018-09-21T13:47:46.154Z,5.30
2018-09-21T13:50:18.574Z,4.30
2018-09-21T13:52:50.978Z,3.10
2018-09-21T13:55:23.382Z,5.17
2018-09-21T13:57:56.321Z,2.90
2018-09-21T14:00:29.010Z,1.67
2018-09-21T14:03:01.394Z,3.73
2018-09-21T14:05:33.843Z,3.63
2018-09-21T14:08:06.221Z,2.00
2018-09-21T14:10:38.636Z,2.57
2018-09-21T14:13:11.034Z,2.63
2018-09-21T14:15:43.446Z,3.20
2018-09-21T14:18:15.834Z,2.33
2018-09-21T14:20:48.230Z,2.47
2018-09-21T14:23:20.610Z,2.73
2018-09-21T14:25:53.020Z,3.17
2018-09-21T14:28:25.429Z,3.03
2018-09-21T14:30:57.842Z,3.30
2018-09-21T14:33:30.222Z,2.20
2018-09-21T14:36:02.633Z,2.90
2018-09-21T14:38:35.048Z,4.13
2018-09-21T14:41:07.464Z,5.50
2018-09-21T14:43:39.863Z,4.47
2018-09-21T14:46:12.267Z,3.13
2018-09-21T14:48:44.655Z,5.90
2018-09-21T14:51:17.066Z,2.90
2018-09-21T14:53:49.456Z,3.73
2018-09-21T14:56:21.857Z,5.87
2018-09-21T14:58:54.347Z,2.60
2018-09-21T15:01:26.747Z,2.77
2018-09-21T15:03:59.140Z,3.03
2018-09-21T15:06:31.561Z,2.63
2018-09-21T15:09:06.030Z,5.50
2018-09-21T15:11:38.534Z,1.90
2018-09-21T15:14:10.919Z,1.63
2018-09-21T15:16:43.322Z,2.93
2018-09-21T15:19:15.708Z,2.80
2018-09-21T15:21:48.102Z,2.83
2018-09-21T15:24:20.505Z,5.07
2018-09-21T15:26:52.904Z,4.37
2018-09-21T15:29:25.282Z,2.77
2018-09-21T15:31:57.702Z,6.43
2018-09-21T15:34:30.373Z,9.37
2018-09-21T15:37:02.765Z,3.30
2018-09-21T15:39:35.190Z,4.80
2018-09-21T15:42:07.619Z,4.67
2018-09-21T15:44:40.010Z,7.77
2018-09-21T15:47:12.440Z,10.17
2018-09-21T15:49:44.889Z,4.13
2018-09-21T15:52:17.326Z,5.43
2018-09-21T15:54:49.764Z,6.67
2018-09-21T15:57:22.174Z,7.17
2018-09-21T15:59:54.558Z,3.87
2018-09-21T16:02:26.970Z,5.13
2018-09-21T16:04:59.649Z,2.57
2018-09-21T16:07:32.095Z,6.57
2018-09-21T16:10:04.499Z,5.73
2018-09-21T16:12:36.938Z,8.37
2018-09-21T16:15:09.375Z,5.10
2018-09-21T16:17:41.784Z,6.40
2018-09-21T16:20:14.181Z,4.93
2018-09-21T16:22:46.597Z,6.93
2018-09-21T16:25:18.994Z,8.73
2018-09-21T16:27:51.414Z,5.33
2018-09-21T16:30:23.823Z,8.57
2018-09-21T16:32:56.481Z,9.37
2018-09-21T16:35:28.890Z,6.57
2018-09-21T16:38:01.319Z,5.93
2018-09-21T16:40:33.717Z,7.67
2018-09-21T16:43:06.342Z,10.43
2018-09-21T16:45:38.791Z,9.63
2018-09-21T16:48:11.196Z,5.33
2018-09-21T16:50:43.608Z,8.00
2018-09-21T16:53:16.014Z,9.70
2018-09-21T16:55:48.440Z,7.13
2018-09-21T16:58:20.859Z,7.90
2018-09-21T17:00:53.259Z,6.77
2018-09-21T17:03:25.700Z,9.23
2018-09-21T17:05:58.107Z,6.00
2018-09-21T17:08:30.526Z,5.37
2018-09-21T17:11:02.923Z,5.10
2018-09-21T17:13:35.351Z,6.00
2018-09-21T17:16:07.756Z,11.40
2018-09-21T17:18:40.210Z,5.63
2018-09-21T17:21:12.732Z,12.83
2018-09-21T17:23:45.042Z,5.73
2018-09-21T17:26:23.975Z,7.27
2018-09-21T17:28:56.377Z,5.37
2018-09-21T17:31:28.814Z,6.87
2018-09-21T17:34:01.248Z,4.73
2018-09-21T17:36:33.666Z,5.30
2018-09-21T17:39:08.498Z,10.90
2018-09-21T17:41:40.912Z,10.80
2018-09-21T17:44:13.313Z,6.93
2018-09-21T17:46:45.722Z,8.47
2018-09-21T17:49:18.465Z,8.77
2018-09-21T17:51:50.882Z,6.37
2018-09-21T17:54:23.311Z,9.23
2018-09-21T17:56:55.718Z,7.47
2018-09-21T17:59:28.621Z,13.03
2018-09-21T18:02:01.022Z,7.47
2018-09-21T18:04:33.451Z,12.40
2018-09-21T18:07:05.858Z,9.03
2018-09-21T18:09:38.537Z,13.30
2018-09-21T18:12:11.102Z,11.40
2018-09-21T18:14:43.527Z,11.77
2018-09-21T18:17:17.520Z,9.43
2018-09-21T18:19:49.903Z,5.23
2018-09-21T18:22:22.314Z,9.00
2018-09-21T18:24:54.702Z,11.37
2018-09-21T18:27:27.131Z,11.43
2018-09-21T18:29:59.528Z,9.90
2018-09-21T18:32:31.924Z,9.27
2018-09-21T18:35:04.338Z,7.67
2018-09-21T18:37:36.780Z,12.60
2018-09-21T18:40:09.183Z,13.57
2018-09-21T18:42:41.601Z,14.90
2018-09-21T18:45:13.984Z,10.20
2018-09-21T18:47:46.378Z,8.93
2018-09-21T18:50:18.834Z,9.37
2018-09-21T18:52:51.370Z,8.47
2018-09-21T18:55:23.824Z,10.80
2018-09-21T18:57:56.223Z,5.57
2018-09-21T19:00:28.846Z,8.67
2018-09-21T19:03:01.275Z,10.87
2018-09-21T19:05:33.679Z,7.37
2018-09-21T19:08:06.130Z,10.00
2018-09-21T19:10:38.554Z,10.03
2018-09-21T19:13:10.977Z,11.13
2018-09-21T19:15:43.397Z,5.53
2018-09-21T19:18:15.818Z,13.70
2018-09-21T19:20:48.242Z,9.70
2018-09-21T19:23:20.666Z,8.57
2018-09-21T19:25:53.115Z,7.70
2018-09-21T19:28:25.550Z,9.60
2018-09-21T19:30:57.996Z,12.83
2018-09-21T19:33:30.436Z,11.00
2018-09-21T19:36:02.943Z,9.60
2018-09-21T19:38:35.402Z,6.77
2018-09-21T19:41:07.834Z,10.87
2018-09-21T19:43:40.293Z,8.43
2018-09-21T19:46:12.719Z,10.03
2018-09-21T19:48:45.207Z,8.80
2018-09-21T19:51:17.642Z,10.93
2018-09-21T19:53:50.071Z,4.10
2018-09-21T19:56:22.486Z,16.10
2018-09-21T19:58:54.933Z,9.10
2018-09-21T20:01:27.354Z,8.63
2018-09-21T20:03:59.790Z,10.07
2018-09-21T20:06:32.203Z,8.33
2018-09-21T20:09:06.781Z,11.10
2018-09-21T20:11:39.180Z,11.13
2018-09-21T20:14:11.578Z,7.77
2018-09-21T20:16:44.014Z,9.60
2018-09-21T20:19:16.414Z,7.83
2018-09-21T20:21:48.813Z,8.10
2018-09-21T20:24:21.210Z,8.00
2018-09-21T20:26:53.614Z,9.63
2018-09-21T20:29:26.020Z,12.10
2018-09-21T20:31:58.397Z,6.77
2018-09-21T20:34:30.797Z,8.13
2018-09-21T20:37:03.190Z,13.30
2018-09-21T20:39:35.594Z,7.80
2018-09-21T20:42:07.981Z,12.67
2018-09-21T20:44:40.446Z,7.40
2018-09-21T20:47:12.789Z,12.10
2018-09-21T20:49:45.197Z,9.27
2018-09-21T20:52:17.593Z,12.87
2018-09-21T20:54:49.990Z,7.90
2018-09-21T20:57:22.374Z,12.90
2018-09-21T20:59:54.769Z,10.73
2018-09-21T21:02:27.207Z,13.17
2018-09-21T21:04:59.632Z,16.27
2018-09-21T21:07:32.066Z,12.90
2018-09-21T21:10:04.496Z,7.03
2018-09-21T21:12:36.911Z,8.03
2018-09-21T21:15:09.342Z,15.23
2018-09-21T21:17:41.771Z,7.10
2018-09-21T21:20:14.239Z,11.07
2018-09-21T21:22:48.390Z,10.97
2018-09-21T21:25:20.849Z,14.37
2018-09-21T21:27:53.376Z,12.10
2018-09-21T21:30:25.793Z,9.70
2018-09-21T21:32:58.197Z,8.87
2018-09-21T21:35:30.934Z,9.10
2018-09-21T21:38:03.349Z,13.77
2018-09-21T21:40:35.786Z,13.73
2018-09-21T21:43:08.218Z,11.17
2018-09-21T21:45:40.677Z,14.90
2018-09-21T21:48:13.115Z,9.83
2018-09-21T21:50:45.558Z,11.43
2018-09-21T21:53:17.974Z,13.37
2018-09-21T21:55:50.440Z,9.23
2018-09-21T21:58:22.942Z,8.93
2018-09-21T22:00:55.440Z,11.10
2018-09-21T22:03:27.867Z,11.63
2018-09-21T22:06:00.296Z,13.93
2018-09-21T22:08:32.708Z,11.63
2018-09-21T22:11:05.466Z,12.90
2018-09-21T22:13:37.850Z,14.73
2018-09-21T22:16:10.245Z,13.87
2018-09-21T22:18:42.646Z,12.53
2018-09-21T22:21:15.050Z,19.27
2018-09-21T22:23:47.441Z,11.63
2018-09-21T22:26:19.848Z,10.13
2018-09-21T22:28:52.268Z,12.07
2018-09-21T22:31:24.670Z,15.40
2018-09-21T22:33:57.063Z,16.40
2018-09-21T22:36:29.510Z,11.70
2018-09-21T22:39:01.905Z,13.17
2018-09-21T22:41:34.315Z,12.77
2018-09-21T22:44:06.702Z,13.90
2018-09-21T22:46:39.102Z,14.27
2018-09-21T22:49:11.495Z,14.17
2018-09-21T22:51:43.890Z,8.90
2018-09-21T22:54:16.276Z,13.67
2018-09-21T22:56:48.679Z,17.17
2018-09-21T22:59:21.078Z,14.77
2018-09-21T23:01:53.490Z,13.57
2018-09-21T23:04:25.878Z,14.40
2018-09-21T23:06:58.326Z,17.47
2018-09-21T23:09:30.738Z,14.00
2018-09-21T23:12:03.190Z,13.03
2018-09-21T23:14:35.618Z,17.13
2018-09-21T23:17:08.051Z,12.87
2018-09-21T23:19:40.485Z,13.03
2018-09-21T23:22:12.902Z,17.67
2018-09-21T23:24:45.330Z,13.63
2018-09-21T23:27:17.769Z,12.37
2018-09-21T23:29:50.202Z,10.77
2018-09-21T23:32:22.626Z,18.87
2018-09-21T23:34:55.046Z,14.30
2018-09-21T23:37:27.521Z,14.00
2018-09-21T23:39:59.935Z,17.10
2018-09-21T23:42:32.367Z,10.83
2018-09-21T23:45:04.873Z,9.87
2018-09-21T23:47:37.311Z,13.70
2018-09-21T23:50:09.736Z,11.93
2018-09-21T23:52:42.274Z,17.20
2018-09-21T23:55:14.663Z,15.73
2018-09-21T23:57:47.074Z,12.73
